Latest Weather Observations for Leonora Airport

IDW60801

Issued at 6:02 am WST Monday 3 August 2015 (issued every 30 minutes, with the page automatically refreshed every 10 minutes)

About weather observations | Map of weather stations | Latest weather observations for WA | Other Formats
Station Details ID: 012241 Name: LEONORA AERO Lat: -28.88 Lon: 121.32 Height: 370.0 m
Data from the previous 72 hours. | See also: Recent months at Leonora Airport
Date/Time
WST
Temp
°C
App
Temp
°C
Dew
Point
Rel
Hum
%
Delta-T
°C
Wind Press
QNH
hPa
Press
MSL
hPa
Rain
since 9 am
mm
Dir
 
Spd
km/h
Gust
km/h
Spd
kts
Gust
kts
03/06:00am 3.5 0.3 2.8 95 0.3 ESE 9 13 5 7 1033.0 1032.6 0.0
03/05:30am 3.6 0.0 2.7 94 0.4 ESE 11 15 6 8 1032.8 1032.4 0.0
03/05:00am 4.0 0.4 3.1 94 0.4 ESE 11 15 6 8 1032.7 1032.3 0.0
03/04:30am 4.0 0.8 3.1 94 0.4 SE 9 13 5 7 1032.4 1032.1 0.0
03/04:00am 4.2 0.7 3.3 94 0.4 ESE 11 15 6 8 1032.3 1032.0 0.0
03/03:30am 4.6 0.7 3.6 93 0.4 ESE 13 15 7 8 1032.2 1031.9 0.0
03/03:00am 4.6 1.1 3.6 93 0.4 ESE 11 15 6 8 1032.1 1031.8 0.0
03/02:30am 4.7 1.6 3.5 92 0.5 E 9 11 5 6 1032.0 1031.7 0.0
03/02:00am 4.9 1.8 3.6 91 0.5 E 9 11 5 6 1032.3 1032.0 0.0
03/01:30am 5.2 2.1 3.5 89 0.7 E 9 13 5 7 1032.3 1032.0 0.0
03/01:00am 5.7 1.9 3.9 88 0.8 ESE 13 19 7 10 1032.3 1032.0 0.0
03/12:30am 5.9 1.8 4.1 88 0.8 SE 15 20 8 11 1032.4 1032.1 0.0
03/12:00am 5.9 2.2 4.4 90 0.7 SE 13 17 7 9 1032.8 1032.4 0.0
 
Date/Time
WST
Temp
°C
App
Temp
°C
Dew
Point
Rel
Hum
%
Delta-T
°C
Wind Press
QNH
hPa
Press
MSL
hPa
Rain
since 9 am
mm
Dir
 
Spd
km/h
Gust
km/h
Spd
kts
Gust
kts
02/11:30pm 6.0 2.3 4.3 89 0.7 ESE 13 15 7 8 1033.0 1032.6 0.0
02/11:00pm 6.5 3.5 4.3 86 1.0 ESE 9 15 5 8 1033.0 1032.6 0.0
02/10:30pm 7.0 4.1 4.5 84 1.1 SE 9 13 5 7 1033.1 1032.7 0.0
02/10:00pm 7.6 3.9 4.6 81 1.3 SE 13 17 7 9 1033.1 1032.7 0.0
02/09:30pm 7.4 3.7 4.7 83 1.2 SE 13 15 7 8 1033.3 1032.9 0.0
02/09:00pm 8.2 4.9 4.6 78 1.6 SE 11 15 6 8 1033.2 1032.8 0.0
02/08:30pm 8.4 5.1 4.6 77 1.7 SE 11 15 6 8 1033.0 1032.6 0.0
02/08:00pm 8.9 5.2 4.7 75 1.9 SE 13 19 7 10 1032.8 1032.4 0.0
02/07:30pm 9.1 5.4 4.7 74 2.0 SSE 13 17 7 9 1032.6 1032.2 0.0
02/07:00pm 9.1 5.5 4.9 75 1.9 SSE 13 17 7 9 1032.0 1031.7 0.0
02/06:30pm 9.4 6.1 4.8 73 2.1 SSE 11 17 6 9 1031.7 1031.4 0.0
02/06:00pm 10.0 6.0 4.8 70 2.4 SE 15 20 8 11 1031.3 1030.9 0.0
02/05:30pm 10.5 6.4 4.4 66 2.8 SE 15 20 8 11 1030.9 1030.5 0.0
02/05:00pm 11.2 6.8 4.7 64 3.0 SE 17 22 9 12 1030.8 1030.4 0.0
02/04:30pm 11.5 7.1 4.9 64 3.1 SE 17 20 9 11 1030.4 1030.0 0.0
02/04:00pm 11.6 6.9 5.0 64 3.1 SE 19 24 10 13 1030.4 1030.0 0.0
02/03:30pm 12.0 7.8 5.6 65 3.0 SE 17 30 9 16 1030.3 1029.9 0.0
02/03:00pm 11.9 7.0 5.3 64 3.1 ESE 20 26 11 14 1030.2 1029.8 0.0
02/02:30pm 11.8 6.9 5.2 64 3.1 SE 20 28 11 15 1030.1 1029.7 0.0
02/02:00pm 12.0 7.4 5.4 64 3.1 ESE 19 28 10 15 1030.2 1029.8 0.0
02/01:30pm 11.7 6.5 5.3 65 3.0 SE 22 30 12 16 1030.2 1029.8 0.0
02/01:00pm 11.8 6.7 6.1 68 2.7 SE 22 30 12 16 1030.3 1029.9 0.0
02/12:30pm 11.7 6.6 5.8 67 2.8 SE 22 30 12 16 1030.4 1030.0 0.0
02/12:00pm 11.7 6.5 5.3 65 3.0 ESE 22 33 12 18 1030.8 1030.4 0.0
02/11:30am 11.6 6.8 5.7 67 2.8 ESE 20 32 11 17 1031.0 1030.6 0.0
02/11:00am 11.6 6.8 5.7 67 2.8 E 20 28 11 15 1031.0 1030.6 0.0
02/10:30am 11.1 6.3 5.4 68 2.7 ESE 20 32 11 17 1031.1 1030.7 0.0
02/10:00am 11.0 5.2 6.2 72 2.3 ESE 26 35 14 19 1031.1 1030.7 0.0
02/09:30am 10.8 4.9 5.8 71 2.4 ESE 26 37 14 20 1030.9 1030.5 0.0
02/09:00am 10.4 4.7 6.5 77 1.8 ESE 26 33 14 18 1030.7 1030.3 1.8
02/08:30am 9.6 5.0 6.7 82 1.4 ESE 20 28 11 15 1030.4 1030.0 1.8
02/08:00am 9.3 4.7 6.6 83 1.3 ESE 20 30 11 16 1030.0 1029.6 1.8
02/07:58am 9.3 4.7 6.7 84 1.2 ESE 20 30 11 16 1030.0 1029.6 1.8
02/07:30am 9.0 3.3 6.8 86 1.0 ESE 26 46 14 25 1029.4 1029.1 1.8
02/07:23am 8.9 2.8 6.7 86 1.0 ESE 28 46 15 25 1029.2 1028.9 1.8
02/07:00am 8.7 3.1 7.0 89 0.8 ESE 26 39 14 21 1028.9 1028.5 1.8
02/06:46am 8.7 3.6 7.6 93 0.5 SE 24 35 13 19 1028.8 1028.4 1.8
02/06:30am 8.6 3.5 7.8 95 0.4 SE 24 37 13 20 1028.4 1028.0 1.8
02/06:00am 9.1 4.5 8.2 94 0.4 SE 22 33 12 18 1027.8 1027.4 1.8
02/05:36am 9.5 5.3 8.3 92 0.6 SE 20 32 11 17 1027.4 1027.0 1.8
02/05:30am 9.8 5.2 8.2 90 0.8 ESE 22 32 12 17 1027.2 1026.8 1.8
02/05:10am 9.8 5.6 8.4 91 0.7 ESE 20 28 11 15 1027.0 1026.6 1.8
02/05:00am 9.8 5.3 8.6 92 0.6 ESE 22 35 12 19 1026.9 1026.5 1.8
02/04:30am 10.1 5.3 8.7 91 0.7 ESE 24 37 13 20 1026.5 1026.1 1.8
02/04:07am 10.1 6.3 9.2 94 0.5 SE 19 26 10 14 1026.3 1025.9 1.8
02/04:00am 10.0 6.0 9.1 94 0.5 SE 20 32 11 17 1026.3 1025.9 1.8
02/03:41am 10.0 5.6 9.1 94 0.5 SE 22 32 12 17 1026.2 1025.8 1.8
02/03:30am 10.2 5.8 9.0 92 0.6 SE 22 35 12 19 1026.2 1025.8 1.8
02/03:00am 11.1 8.5 9.5 90 0.8 SE 13 20 7 11 1026.1 1025.7 1.6
02/02:30am 11.1 7.8 9.5 90 0.8 SE 17 24 9 13 1025.9 1025.5 1.6
02/02:00am 10.9 8.0 9.7 92 0.6 ESE 15 20 8 11 1025.9 1025.5 1.6
02/01:45am 10.8 7.2 9.7 93 0.6 ESE 19 30 10 16 1025.8 1025.4 1.6
02/01:34am 10.9 7.1 9.7 92 0.6 ESE 20 32 11 17 1025.9 1025.5 1.6
02/01:30am 11.0 7.1 9.6 91 0.7 ESE 20 30 11 16 1025.9 1025.5 1.6
02/01:07am 11.1 7.3 9.9 92 0.6 SE 20 28 11 15 1025.9 1025.5 1.6
02/01:00am 11.2 7.4 9.9 92 0.7 SE 20 30 11 16 1025.8 1025.4 1.6
02/12:47am 11.3 7.8 10.2 93 0.6 SE 19 26 10 14 1025.6 1025.2 1.6
02/12:31am 11.3 8.6 10.4 94 0.5 SE 15 22 8 12 1025.5 1025.1 1.6
02/12:30am 11.3 8.6 10.4 94 0.5 SE 15 22 8 12 1025.5 1025.1 1.6
02/12:09am 11.4 8.0 10.5 94 0.5 SE 19 28 10 15 1025.4 1025.0 1.6
02/12:04am 11.4 7.9 10.3 93 0.6 SE 19 26 10 14 1025.3 1024.9 1.6
02/12:00am 11.4 8.7 10.3 93 0.6 SE 15 24 8 13 1025.3 1024.9 1.6
 
Date/Time
WST
Temp
°C
App
Temp
°C
Dew
Point
Rel
Hum
%
Delta-T
°C
Wind Press
QNH
hPa
Press
MSL
hPa
Rain
since 9 am
mm
Dir
 
Spd
km/h
Gust
km/h
Spd
kts
Gust
kts
01/11:40pm 11.6 8.1 10.2 91 0.7 SE 19 28 10 15 1025.2 1024.8 1.6
01/11:38pm 11.5 7.9 9.9 90 0.8 SE 19 33 10 18 1025.2 1024.8 1.6
01/11:30pm 11.6 7.8 9.9 89 0.9 ESE 20 33 11 18 1025.2 1024.8 1.6
01/11:02pm 11.7 7.5 9.9 89 0.9 ESE 22 32 12 17 1025.1 1024.7 1.4
01/11:00pm 11.9 7.7 9.8 87 1.1 ESE 22 32 12 17 1025.1 1024.7 1.4
01/10:30pm 12.4 8.8 10.0 85 1.3 ESE 19 26 10 14 1025.0 1024.6 1.4
01/10:00pm 12.2 8.5 10.1 87 1.1 ESE 20 30 11 16 1024.7 1024.3 1.4
01/09:30pm 12.5 8.3 9.9 84 1.4 SE 22 35 12 19 1024.5 1024.0 1.4
01/09:28pm 12.5 8.0 9.9 84 1.4 SE 24 35 13 19 1024.5 1024.0 1.4
01/09:07pm 12.4 7.9 10.0 85 1.3 SE 24 35 13 19 1024.2 1023.7 1.4
01/09:00pm 12.7 8.5 9.9 83 1.5 SE 22 35 12 19 1024.2 1023.7 1.4
01/08:30pm 12.3 8.3 10.4 88 1.0 SE 22 33 12 18 1023.7 1023.3 1.4
01/08:00pm 13.0 9.4 10.4 84 1.4 SE 20 30 11 16 1023.3 1022.9 1.4
01/07:30pm 13.0 9.5 10.2 83 1.5 SE 19 30 10 16 1022.9 1022.5 1.4
01/07:00pm 13.3 8.8 10.1 81 1.7 SE 24 39 13 21 1022.3 1021.9 1.4
01/06:36pm 13.5 9.1 10.3 81 1.7 SE 24 39 13 21 1021.8 1021.3 1.4
01/06:30pm 13.6 9.2 10.4 81 1.7 SE 24 35 13 19 1021.6 1021.1 1.4
01/06:00pm 14.1 9.9 11.1 82 1.6 ESE 24 32 13 17 1020.7 1020.3 1.4
01/05:30pm 15.3 12.2 11.5 78 2.1 SSE 19 28 10 15 1020.0 1019.6 1.4
01/05:00pm 15.7 12.4 10.9 73 2.6 SSE 19 30 10 16 1019.6 1019.1 1.4
01/04:30pm 16.3 13.1 11.2 72 2.8 SSE 19 24 10 13 1019.2 1018.7 1.4
01/04:00pm 16.6 13.3 11.7 73 2.7 S 20 28 11 15 1018.7 1018.2 1.4
01/03:30pm 16.5 12.4 12.7 78 2.1 S 26 35 14 19 1018.3 1017.8 1.4
01/03:00pm 18.9 17.0 10.5 58 4.6 SW 11 20 6 11 1017.6 1017.2 1.4
01/02:30pm 19.0 16.7 10.3 57 4.8 SSW 13 19 7 10 1017.4 1016.9 1.4
01/02:00pm 17.9 15.0 11.0 64 3.8 SSW 17 24 9 13 1017.3 1016.8 1.4
01/01:30pm 19.3 16.3 10.8 58 4.7 WSW 17 24 9 13 1017.2 1016.7 1.4
01/01:00pm 18.2 15.2 10.8 62 4.1 WSW 17 24 9 13 1017.1 1016.6 1.4
01/12:30pm 18.0 15.7 11.8 67 3.5 W 15 22 8 12 1017.5 1017.0 1.2
01/12:00pm 16.1 12.6 10.8 71 2.9 WSW 20 33 11 18 1017.8 1017.4 1.2
01/11:30am 17.3 14.3 11.8 70 3.1 WNW 19 30 10 16 1018.0 1017.6 1.2
01/11:00am 17.0 13.4 11.9 72 2.8 W 22 28 12 15 1018.0 1017.6 1.2
01/10:30am 15.7 13.4 13.0 84 1.5 W 17 26 9 14 1018.3 1017.8 1.2
01/10:20am 15.2 13.7 13.2 88 1.1 WNW 13 19 7 10 1018.4 1017.9 1.2
01/10:00am 14.4 12.4 12.8 90 0.9 W 15 22 8 12 1018.4 1017.9 0.6
01/09:55am 14.7 13.0 12.6 87 1.2 WNW 13 19 7 10 1018.4 1017.9 0.2
01/09:52am 14.9 13.7 12.9 88 1.1 NW 11 13 6 7 1018.3 1017.8 0.2
01/09:39am 14.9 12.4 12.4 85 1.4 NNW 17 24 9 13 1018.1 1017.7 0.0
01/09:30am 15.5 13.3 12.1 80 1.9 NNW 15 24 8 13 1018.0 1017.6 0.0
01/09:00am 15.2 13.5 12.3 83 1.6 N 13 17 7 9 1017.5 1017.0 9.8
01/08:30am 14.3 11.6 11.6 84 1.5 N 17 20 9 11 1017.2 1016.7 9.8
01/08:00am 13.4 11.4 11.6 89 1.0 N 13 20 7 11 1016.8 1016.3 9.8
01/07:30am 13.1 11.5 11.7 91 0.8 NNW 11 15 6 8 1016.5 1016.4 9.8
01/07:00am 12.2 10.5 11.3 94 0.5 NNW 11 17 6 9 1016.0 1015.8 9.8
01/06:30am 12.2 10.5 11.1 93 0.6 N 11 15 6 8 1015.7 1015.5 9.8
01/06:00am 12.4 11.1 11.1 92 0.7 N 9 15 5 8 1015.8 1015.6 9.8
01/05:30am 12.7 11.4 11.3 91 0.8 N 9 15 5 8 1015.5 1015.3 9.8
01/05:00am 13.0 13.1 11.6 91 0.8 NW 2 7 1 4 1015.8 1015.6 9.8
01/04:30am 13.0 12.2 11.6 91 0.8 NNE 7 11 4 6 1015.3 1015.2 9.8
01/04:00am 13.0 11.0 11.6 91 0.8 NE 13 20 7 11 1014.9 1014.8 9.8
01/03:30am 13.0 9.9 11.7 92 0.7 NE 19 26 10 14 1014.8 1014.7 9.8
01/03:00am 13.0 9.4 11.7 92 0.7 NE 22 30 12 16 1015.0 1014.9 9.8
01/02:30am 12.9 9.9 12.0 94 0.5 ENE 19 26 10 14 1015.5 1015.3 9.8
01/02:00am 12.9 9.9 12.0 94 0.5 E 19 26 10 14 1015.6 1015.4 8.8
01/01:39am 12.9 10.3 12.1 95 0.4 ESE 17 26 9 14 1015.5 1015.3 8.0
01/01:30am 12.9 9.8 12.1 95 0.4 ESE 20 28 11 15 1015.8 1015.6 7.6
01/01:05am 13.1 11.0 12.3 95 0.4 ESE 15 20 8 11 1016.3 1016.1 7.2
01/01:00am 13.2 11.5 12.4 95 0.4 E 13 20 7 11 1016.5 1016.4 7.0
01/12:41am 13.1 10.0 12.2 94 0.5 SE 20 28 11 15 1016.1 1015.9 6.4
01/12:30am 13.1 10.6 12.2 94 0.5 SE 17 30 9 16 1016.6 1016.5 5.8
01/12:15am 13.3 12.3 12.2 93 0.6 ESE 9 15 5 8 1016.9 1016.8 4.8
01/12:00am 13.3 11.5 12.0 92 0.7 SE 13 20 7 11 1016.8 1016.7 4.0
 
Date/Time
WST
Temp
°C
App
Temp
°C
Dew
Point
Rel
Hum
%
Delta-T
°C
Wind Press
QNH
hPa
Press
MSL
hPa
Rain
since 9 am
mm
Dir
 
Spd
km/h
Gust
km/h
Spd
kts
Gust
kts
31/11:30pm 13.5 11.7 12.2 92 0.7 SE 13 19 7 10 1016.1 1015.9 3.6
31/11:00pm 13.6 11.9 12.5 93 0.6 SE 13 22 7 12 1016.1 1015.9 3.6
31/10:38pm 13.6 11.9 12.5 93 0.6 SE 13 19 7 10 1016.5 1016.4 3.6
31/10:30pm 13.6 11.5 12.3 92 0.7 SSE 15 22 8 12 1016.5 1016.4 3.4
31/10:25pm 13.6 11.5 12.3 92 0.7 SSE 15 22 8 12 1016.3 1016.1 3.2
31/10:00pm 13.9 11.0 12.3 90 0.9 ESE 19 28 10 15 1016.4 1016.2 2.4
31/09:30pm 14.1 11.1 12.7 91 0.8 SE 20 30 11 16 1016.1 1015.9 2.4
31/09:16pm 14.4 10.7 12.8 90 0.9 SSE 24 35 13 19 1016.2 1016.0 2.0
31/09:00pm 15.2 12.5 13.6 90 0.9 S 20 39 11 21 1015.9 1015.7 1.6
31/08:59pm 15.3 12.7 13.7 90 0.9 S 20 39 11 21 1015.9 1015.7 1.6
31/08:57pm 15.5 13.1 13.9 90 0.9 S 19 35 10 19 1016.1 1015.9 1.6
31/08:30pm 16.8 16.1 13.3 80 2.0 SSW 9 20 5 11 1015.8 1015.6 0.2
31/08:00pm 16.9 11.8 13.0 78 2.2 SSW 32 50 17 27 1014.5 1014.4 0.2
31/07:54pm 17.1 12.0 13.2 78 2.2 SSW 32 50 17 27 1014.4 1014.3 0.2
31/07:30pm 18.0 13.5 13.9 77 2.4 SW 30 41 16 22 1014.4 1014.3 0.2
31/07:00pm 19.8 16.3 13.3 66 3.8 SW 24 37 13 20 1013.9 1013.7 0.0
31/06:30pm 22.4 18.0 12.9 55 5.5 SSW 28 44 15 24 1012.2 1012.1 0.0
31/06:21pm 22.8 21.4 13.3 55 5.6 N 13 44 7 24 1011.6 1011.4 0.0
31/06:00pm 23.3 23.9 14.3 57 5.4 NNE 4 13 2 7 1010.9 1010.7 0.0
31/05:30pm 23.6 25.2 14.9 58 5.3 CALM 0 0 0 0 1010.6 1010.4 0.0
31/05:00pm 24.9 25.0 12.8 47 7.1 NNW 4 9 2 5 1010.7 1010.5 0.0
31/04:30pm 25.8 26.4 11.9 42 8.1 CALM 0 0 0 0 1010.5 1010.3 0.0
31/04:00pm 26.6 25.5 10.7 37 9.1 WSW 7 9 4 5 1010.5 1010.3 0.0
31/03:30pm 26.9 25.5 11.0 37 9.2 WSW 9 13 5 7 1010.8 1010.6 0.0
31/03:00pm 27.8 25.9 10.5 34 9.9 W 11 17 6 9 1010.9 1010.7 0.0
31/02:30pm 28.0 25.1 9.8 32 10.3 WNW 15 24 8 13 1011.1 1010.9 0.0
31/02:00pm 27.8 25.3 9.6 32 10.3 WNW 13 19 7 10 1011.6 1011.4 0.0
31/01:30pm 26.8 24.6 10.9 37 9.1 W 13 20 7 11 1012.1 1012.0 0.0
31/01:00pm 26.9 24.4 11.0 37 9.2 WNW 15 20 8 11 1012.7 1012.5 0.0
31/12:30pm 26.1 24.1 11.4 39 8.5 WNW 13 20 7 11 1013.3 1013.1 0.0
31/12:00pm 24.9 24.0 12.5 46 7.3 NW 9 17 5 9 1013.9 1013.7 0.0
31/11:30am 23.9 23.4 12.5 49 6.6 NNW 7 13 4 7 1014.4 1014.3 0.0
31/11:00am 22.5 22.6 12.7 54 5.7 NNW 4 7 2 4 1014.9 1014.8 0.0
31/10:30am 21.5 21.3 12.9 58 5.0 NNE 6 11 3 6 1015.3 1015.2 0.0
31/10:00am 20.3 19.5 13.0 63 4.2 NNE 9 13 5 7 1015.9 1015.7 0.0
31/09:30am 19.1 18.5 13.5 70 3.2 NE 9 13 5 7 1016.2 1016.0 0.0
31/09:00am 18.0 17.0 13.5 75 2.6 ENE 11 13 6 7 1016.6 1016.5 0.2
31/08:30am 16.9 16.3 13.4 80 2.0 E 9 13 5 7 1016.9 1016.8 0.2
31/08:00am 15.6 14.5 13.1 85 1.4 E 11 15 6 8 1016.9 1016.8 0.2
31/07:30am 15.0 14.2 13.0 88 1.1 E 9 13 5 7 1017.1 1017.0 0.2
31/07:00am 14.2 13.4 12.8 91 0.8 E 9 13 5 7 1017.0 1016.9 0.2
31/06:30am 14.3 12.4 12.9 91 0.8 ESE 15 20 8 11 1016.8 1016.7 0.2

Other Formats:

Comma delimited format used in spreadsheet applications
http://www.bom.gov.au/fwo/IDW60801/IDW60801.94450.axf

JavaScript Object Notation format (JSON) in row-major order
http://www.bom.gov.au/fwo/IDW60801/IDW60801.94450.json